sensor_id;sensor_type;location;lat;lon;timestamp;P1;durP1;ratioP1;P2;durP2;ratioP2
22549;SDS011;11441;57.164;-2.120;2022-10-19T00:01:19;5.57;;;2.15;;
22549;SDS011;11441;57.164;-2.120;2022-10-19T00:04:06;6.13;;;1.73;;
22549;SDS011;11441;57.164;-2.120;2022-10-19T00:06:34;6.60;;;2.27;;
22549;SDS011;11441;57.164;-2.120;2022-10-19T00:13:03;4.35;;;2.17;;
22549;SDS011;11441;57.164;-2.120;2022-10-19T00:15:30;4.83;;;2.30;;
22549;SDS011;11441;57.164;-2.120;2022-10-19T00:17:57;6.03;;;2.50;;
22549;SDS011;11441;57.164;-2.120;2022-10-19T00:20:24;4.05;;;2.45;;
22549;SDS011;11441;57.164;-2.120;2022-10-19T00:22:51;6.30;;;2.20;;
22549;SDS011;11441;57.164;-2.120;2022-10-19T00:25:17;6.10;;;1.90;;
22549;SDS011;11441;57.164;-2.120;2022-10-19T00:27:44;5.23;;;2.23;;
22549;SDS011;11441;57.164;-2.120;2022-10-19T00:30:30;6.07;;;2.60;;
22549;SDS011;11441;57.164;-2.120;2022-10-19T00:32:56;5.57;;;1.60;;
22549;SDS011;11441;57.164;-2.120;2022-10-19T00:35:23;7.10;;;2.37;;
22549;SDS011;11441;57.164;-2.120;2022-10-19T00:37:50;7.37;;;1.67;;
22549;SDS011;11441;57.164;-2.120;2022-10-19T00:40:17;4.37;;;1.80;;
22549;SDS011;11441;57.164;-2.120;2022-10-19T00:42:44;4.00;;;2.00;;
22549;SDS011;11441;57.164;-2.120;2022-10-19T00:45:12;8.70;;;2.07;;
22549;SDS011;11441;57.164;-2.120;2022-10-19T00:47:44;6.07;;;2.10;;
22549;SDS011;11441;57.164;-2.120;2022-10-19T00:50:11;7.27;;;1.97;;
22549;SDS011;11441;57.164;-2.120;2022-10-19T00:52:40;3.77;;;1.60;;
22549;SDS011;11441;57.164;-2.120;2022-10-19T00:55:07;4.23;;;1.67;;
22549;SDS011;11441;57.164;-2.120;2022-10-19T00:57:35;10.60;;;1.77;;
22549;SDS011;11441;57.164;-2.120;2022-10-19T01:00:03;7.22;;;1.52;;
22549;SDS011;11441;57.164;-2.120;2022-10-19T01:02:32;5.00;;;2.10;;
22549;SDS011;11441;57.164;-2.120;2022-10-19T01:05:00;4.13;;;1.93;;
22549;SDS011;11441;57.164;-2.120;2022-10-19T01:07:28;7.10;;;1.77;;
22549;SDS011;11441;57.164;-2.120;2022-10-19T01:09:55;5.25;;;1.90;;
22549;SDS011;11441;57.164;-2.120;2022-10-19T01:21:49;11.53;;;4.87;;
22549;SDS011;11441;57.164;-2.120;2022-10-19T01:24:49;4.27;;;3.30;;
22549;SDS011;11441;57.164;-2.120;2022-10-19T01:27:26;8.13;;;3.20;;
22549;SDS011;11441;57.164;-2.120;2022-10-19T01:30:45;7.10;;;3.08;;
22549;SDS011;11441;57.164;-2.120;2022-10-19T01:36:11;6.53;;;3.00;;
22549;SDS011;11441;57.164;-2.120;2022-10-19T01:38:53;4.37;;;2.23;;
22549;SDS011;11441;57.164;-2.120;2022-10-19T01:44:31;3.03;;;1.70;;
22549;SDS011;11441;57.164;-2.120;2022-10-19T01:47:43;4.07;;;1.10;;
22549;SDS011;11441;57.164;-2.120;2022-10-19T01:50:15;4.25;;;1.25;;
22549;SDS011;11441;57.164;-2.120;2022-10-19T01:52:50;2.23;;;0.93;;
22549;SDS011;11441;57.164;-2.120;2022-10-19T01:55:19;2.90;;;0.63;;
22549;SDS011;11441;57.164;-2.120;2022-10-19T01:57:50;5.35;;;1.08;;
22549;SDS011;11441;57.164;-2.120;2022-10-19T02:00:22;2.70;;;0.60;;
22549;SDS011;11441;57.164;-2.120;2022-10-19T02:02:50;2.38;;;0.47;;
22549;SDS011;11441;57.164;-2.120;2022-10-19T02:05:21;5.05;;;0.70;;
22549;SDS011;11441;57.164;-2.120;2022-10-19T02:07:53;2.78;;;0.80;;
22549;SDS011;11441;57.164;-2.120;2022-10-19T02:10:24;3.73;;;1.03;;
22549;SDS011;11441;57.164;-2.120;2022-10-19T02:12:52;3.08;;;1.00;;
22549;SDS011;11441;57.164;-2.120;2022-10-19T02:15:22;6.72;;;1.58;;
22549;SDS011;11441;57.164;-2.120;2022-10-19T02:17:53;3.13;;;0.97;;
22549;SDS011;11441;57.164;-2.120;2022-10-19T02:20:41;3.40;;;0.45;;
22549;SDS011;11441;57.164;-2.120;2022-10-19T02:23:08;2.90;;;0.70;;
22549;SDS011;11441;57.164;-2.120;2022-10-19T02:25:35;5.03;;;0.80;;
22549;SDS011;11441;57.164;-2.120;2022-10-19T02:28:02;5.00;;;0.60;;
22549;SDS011;11441;57.164;-2.120;2022-10-19T02:30:30;4.72;;;0.68;;
22549;SDS011;11441;57.164;-2.120;2022-10-19T02:32:57;1.33;;;0.43;;
22549;SDS011;11441;57.164;-2.120;2022-10-19T02:35:24;6.00;;;0.65;;
22549;SDS011;11441;57.164;-2.120;2022-10-19T02:37:51;5.53;;;0.50;;
22549;SDS011;11441;57.164;-2.120;2022-10-19T02:40:18;5.65;;;0.70;;
22549;SDS011;11441;57.164;-2.120;2022-10-19T02:42:49;3.67;;;0.75;;
22549;SDS011;11441;57.164;-2.120;2022-10-19T02:48:12;1.70;;;0.50;;
22549;SDS011;11441;57.164;-2.120;2022-10-19T02:50:45;3.88;;;0.88;;
22549;SDS011;11441;57.164;-2.120;2022-10-19T02:53:17;3.00;;;0.97;;
22549;SDS011;11441;57.164;-2.120;2022-10-19T02:55:45;3.63;;;1.08;;
22549;SDS011;11441;57.164;-2.120;2022-10-19T02:58:14;2.33;;;0.53;;
22549;SDS011;11441;57.164;-2.120;2022-10-19T03:00:41;2.97;;;0.50;;
22549;SDS011;11441;57.164;-2.120;2022-10-19T03:03:08;1.48;;;0.40;;
22549;SDS011;11441;57.164;-2.120;2022-10-19T03:05:36;5.20;;;0.40;;
22549;SDS011;11441;57.164;-2.120;2022-10-19T03:08:03;2.60;;;0.70;;
22549;SDS011;11441;57.164;-2.120;2022-10-19T03:10:30;1.30;;;0.50;;
22549;SDS011;11441;57.164;-2.120;2022-10-19T03:12:57;2.08;;;0.60;;
22549;SDS011;11441;57.164;-2.120;2022-10-19T03:15:24;3.08;;;0.70;;
22549;SDS011;11441;57.164;-2.120;2022-10-19T03:17:54;1.77;;;0.50;;
22549;SDS011;11441;57.164;-2.120;2022-10-19T03:20:21;2.95;;;0.40;;
22549;SDS011;11441;57.164;-2.120;2022-10-19T03:22:49;5.85;;;0.77;;
22549;SDS011;11441;57.164;-2.120;2022-10-19T03:25:15;1.50;;;0.77;;
22549;SDS011;11441;57.164;-2.120;2022-10-19T03:27:42;2.92;;;0.55;;
22549;SDS011;11441;57.164;-2.120;2022-10-19T03:30:09;5.63;;;0.63;;
22549;SDS011;11441;57.164;-2.120;2022-10-19T03:32:36;2.23;;;0.30;;
22549;SDS011;11441;57.164;-2.120;2022-10-19T03:35:03;1.60;;;0.40;;
22549;SDS011;11441;57.164;-2.120;2022-10-19T03:37:30;5.33;;;0.60;;
22549;SDS011;11441;57.164;-2.120;2022-10-19T03:39:58;2.10;;;0.30;;
22549;SDS011;11441;57.164;-2.120;2022-10-19T03:42:25;2.05;;;0.30;;
22549;SDS011;11441;57.164;-2.120;2022-10-19T03:44:52;1.63;;;0.30;;
22549;SDS011;11441;57.164;-2.120;2022-10-19T03:47:18;1.60;;;0.30;;
22549;SDS011;11441;57.164;-2.120;2022-10-19T03:49:45;5.47;;;0.53;;
22549;SDS011;11441;57.164;-2.120;2022-10-19T03:54:58;1.48;;;0.30;;
22549;SDS011;11441;57.164;-2.120;2022-10-19T03:57:25;1.30;;;0.30;;
22549;SDS011;11441;57.164;-2.120;2022-10-19T03:59:51;0.60;;;0.30;;
22549;SDS011;11441;57.164;-2.120;2022-10-19T04:05:04;2.55;;;0.30;;
22549;SDS011;11441;57.164;-2.120;2022-10-19T04:07:31;2.55;;;0.30;;
22549;SDS011;11441;57.164;-2.120;2022-10-19T04:09:58;2.40;;;0.40;;
22549;SDS011;11441;57.164;-2.120;2022-10-19T04:12:25;3.88;;;0.55;;
22549;SDS011;11441;57.164;-2.120;2022-10-19T04:14:52;5.30;;;0.40;;
22549;SDS011;11441;57.164;-2.120;2022-10-19T04:17:23;2.72;;;0.22;;
22549;SDS011;11441;57.164;-2.120;2022-10-19T04:19:50;0.45;;;0.30;;
22549;SDS011;11441;57.164;-2.120;2022-10-19T04:22:17;2.80;;;0.38;;
22549;SDS011;11441;57.164;-2.120;2022-10-19T04:24:44;0.90;;;0.28;;
22549;SDS011;11441;57.164;-2.120;2022-10-19T04:27:10;1.58;;;0.22;;
22549;SDS011;11441;57.164;-2.120;2022-10-19T04:29:37;4.43;;;0.40;;
22549;SDS011;11441;57.164;-2.120;2022-10-19T04:32:04;2.53;;;0.30;;
22549;SDS011;11441;57.164;-2.120;2022-10-19T04:34:31;2.38;;;0.38;;
22549;SDS011;11441;57.164;-2.120;2022-10-19T04:37:03;2.63;;;0.30;;
22549;SDS011;11441;57.164;-2.120;2022-10-19T04:39:29;4.70;;;0.40;;
22549;SDS011;11441;57.164;-2.120;2022-10-19T04:41:56;3.43;;;0.73;;
22549;SDS011;11441;57.164;-2.120;2022-10-19T04:44:23;2.38;;;0.40;;
22549;SDS011;11441;57.164;-2.120;2022-10-19T04:46:50;0.30;;;0.30;;
22549;SDS011;11441;57.164;-2.120;2022-10-19T04:49:16;1.40;;;0.67;;
22549;SDS011;11441;57.164;-2.120;2022-10-19T04:51:45;4.40;;;0.63;;
22549;SDS011;11441;57.164;-2.120;2022-10-19T04:54:12;2.58;;;0.30;;
22549;SDS011;11441;57.164;-2.120;2022-10-19T04:56:39;1.08;;;0.30;;
22549;SDS011;11441;57.164;-2.120;2022-10-19T04:59:06;0.40;;;0.20;;
22549;SDS011;11441;57.164;-2.120;2022-10-19T05:01:33;0.90;;;0.20;;
22549;SDS011;11441;57.164;-2.120;2022-10-19T05:04:01;1.75;;;0.25;;
22549;SDS011;11441;57.164;-2.120;2022-10-19T05:06:29;2.00;;;0.50;;
22549;SDS011;11441;57.164;-2.120;2022-10-19T05:08:57;6.40;;;1.10;;
22549;SDS011;11441;57.164;-2.120;2022-10-19T05:11:25;1.15;;;0.40;;
22549;SDS011;11441;57.164;-2.120;2022-10-19T05:13:52;4.15;;;0.43;;
22549;SDS011;11441;57.164;-2.120;2022-10-19T05:16:20;4.22;;;0.40;;
22549;SDS011;11441;57.164;-2.120;2022-10-19T05:19:05;0.20;;;0.20;;
22549;SDS011;11441;57.164;-2.120;2022-10-19T05:21:32;1.95;;;0.20;;
22549;SDS011;11441;57.164;-2.120;2022-10-19T05:23:59;3.85;;;0.65;;
22549;SDS011;11441;57.164;-2.120;2022-10-19T05:26:26;3.10;;;0.65;;
22549;SDS011;11441;57.164;-2.120;2022-10-19T05:29:13;4.38;;;0.50;;
22549;SDS011;11441;57.164;-2.120;2022-10-19T05:31:40;2.80;;;0.52;;
22549;SDS011;11441;57.164;-2.120;2022-10-19T05:34:08;2.60;;;0.50;;
22549;SDS011;11441;57.164;-2.120;2022-10-19T05:36:36;1.80;;;0.50;;
22549;SDS011;11441;57.164;-2.120;2022-10-19T05:39:05;1.85;;;0.65;;
22549;SDS011;11441;57.164;-2.120;2022-10-19T05:41:43;3.70;;;0.35;;
22549;SDS011;11441;57.164;-2.120;2022-10-19T05:44:15;2.90;;;0.32;;
22549;SDS011;11441;57.164;-2.120;2022-10-19T05:46:44;1.27;;;0.37;;
22549;SDS011;11441;57.164;-2.120;2022-10-19T05:49:12;5.07;;;0.77;;
22549;SDS011;11441;57.164;-2.120;2022-10-19T05:51:40;7.32;;;0.75;;
22549;SDS011;11441;57.164;-2.120;2022-10-19T05:54:07;1.63;;;0.30;;
22549;SDS011;11441;57.164;-2.120;2022-10-19T05:56:35;2.67;;;0.50;;
22549;SDS011;11441;57.164;-2.120;2022-10-19T05:59:03;0.63;;;0.28;;
22549;SDS011;11441;57.164;-2.120;2022-10-19T06:01:31;1.90;;;0.40;;
22549;SDS011;11441;57.164;-2.120;2022-10-19T06:04:00;2.10;;;0.30;;
22549;SDS011;11441;57.164;-2.120;2022-10-19T06:06:29;1.27;;;0.40;;
22549;SDS011;11441;57.164;-2.120;2022-10-19T06:08:56;1.27;;;0.45;;
22549;SDS011;11441;57.164;-2.120;2022-10-19T06:11:28;3.80;;;0.70;;
22549;SDS011;11441;57.164;-2.120;2022-10-19T06:13:57;1.13;;;0.23;;
22549;SDS011;11441;57.164;-2.120;2022-10-19T06:16:25;1.77;;;0.43;;
22549;SDS011;11441;57.164;-2.120;2022-10-19T06:18:53;1.83;;;0.40;;
22549;SDS011;11441;57.164;-2.120;2022-10-19T06:21:21;1.33;;;0.30;;
22549;SDS011;11441;57.164;-2.120;2022-10-19T06:23:51;2.72;;;0.20;;
22549;SDS011;11441;57.164;-2.120;2022-10-19T06:26:19;1.15;;;0.25;;
22549;SDS011;11441;57.164;-2.120;2022-10-19T06:28:46;4.18;;;0.40;;
22549;SDS011;11441;57.164;-2.120;2022-10-19T06:31:14;1.17;;;0.20;;
22549;SDS011;11441;57.164;-2.120;2022-10-19T06:33:44;3.10;;;0.30;;
22549;SDS011;11441;57.164;-2.120;2022-10-19T06:39:00;1.92;;;0.30;;
22549;SDS011;11441;57.164;-2.120;2022-10-19T06:41:28;0.30;;;0.20;;
22549;SDS011;11441;57.164;-2.120;2022-10-19T06:44:07;0.90;;;0.30;;
22549;SDS011;11441;57.164;-2.120;2022-10-19T06:46:35;2.83;;;0.85;;
22549;SDS011;11441;57.164;-2.120;2022-10-19T06:49:02;2.42;;;0.43;;
22549;SDS011;11441;57.164;-2.120;2022-10-19T06:54:14;4.53;;;0.68;;
22549;SDS011;11441;57.164;-2.120;2022-10-19T06:56:40;2.38;;;0.22;;
22549;SDS011;11441;57.164;-2.120;2022-10-19T06:59:07;0.77;;;0.30;;
22549;SDS011;11441;57.164;-2.120;2022-10-19T07:01:34;1.90;;;0.80;;
22549;SDS011;11441;57.164;-2.120;2022-10-19T07:04:01;2.53;;;0.50;;
22549;SDS011;11441;57.164;-2.120;2022-10-19T07:06:28;0.88;;;0.30;;
22549;SDS011;11441;57.164;-2.120;2022-10-19T07:08:54;2.35;;;0.32;;
22549;SDS011;11441;57.164;-2.120;2022-10-19T07:11:21;0.65;;;0.45;;
22549;SDS011;11441;57.164;-2.120;2022-10-19T07:13:49;3.90;;;0.32;;
22549;SDS011;11441;57.164;-2.120;2022-10-19T07:16:17;3.13;;;0.68;;
22549;SDS011;11441;57.164;-2.120;2022-10-19T07:18:46;2.15;;;0.40;;
22549;SDS011;11441;57.164;-2.120;2022-10-19T07:21:15;3.47;;;0.47;;
22549;SDS011;11441;57.164;-2.120;2022-10-19T07:23:43;1.33;;;0.50;;
22549;SDS011;11441;57.164;-2.120;2022-10-19T07:28:59;4.32;;;0.40;;
22549;SDS011;11441;57.164;-2.120;2022-10-19T07:31:26;3.20;;;0.65;;
22549;SDS011;11441;57.164;-2.120;2022-10-19T07:33:58;1.35;;;0.50;;
22549;SDS011;11441;57.164;-2.120;2022-10-19T07:39:14;2.50;;;0.30;;
22549;SDS011;11441;57.164;-2.120;2022-10-19T07:41:44;2.28;;;0.40;;
22549;SDS011;11441;57.164;-2.120;2022-10-19T07:44:11;1.30;;;0.30;;
22549;SDS011;11441;57.164;-2.120;2022-10-19T07:46:41;4.28;;;0.45;;
22549;SDS011;11441;57.164;-2.120;2022-10-19T07:49:09;1.75;;;0.50;;
22549;SDS011;11441;57.164;-2.120;2022-10-19T07:51:39;1.30;;;0.30;;
22549;SDS011;11441;57.164;-2.120;2022-10-19T07:54:06;3.13;;;0.30;;
22549;SDS011;11441;57.164;-2.120;2022-10-19T07:56:34;2.53;;;0.40;;
22549;SDS011;11441;57.164;-2.120;2022-10-19T07:59:01;1.73;;;0.32;;
22549;SDS011;11441;57.164;-2.120;2022-10-19T08:01:31;3.17;;;0.20;;
22549;SDS011;11441;57.164;-2.120;2022-10-19T08:03:59;5.22;;;0.50;;
22549;SDS011;11441;57.164;-2.120;2022-10-19T08:06:47;5.22;;;0.85;;
22549;SDS011;11441;57.164;-2.120;2022-10-19T08:09:14;1.75;;;0.45;;
22549;SDS011;11441;57.164;-2.120;2022-10-19T08:12:02;1.98;;;0.57;;
22549;SDS011;11441;57.164;-2.120;2022-10-19T08:14:30;3.95;;;0.75;;
22549;SDS011;11441;57.164;-2.120;2022-10-19T08:17:16;4.38;;;0.80;;
22549;SDS011;11441;57.164;-2.120;2022-10-19T08:19:43;2.85;;;0.40;;
22549;SDS011;11441;57.164;-2.120;2022-10-19T08:22:11;2.10;;;0.40;;
22549;SDS011;11441;57.164;-2.120;2022-10-19T08:24:38;8.57;;;0.70;;
22549;SDS011;11441;57.164;-2.120;2022-10-19T08:27:05;3.50;;;0.73;;
22549;SDS011;11441;57.164;-2.120;2022-10-19T08:29:32;4.10;;;1.80;;
22549;SDS011;11441;57.164;-2.120;2022-10-19T08:31:59;1.75;;;0.63;;
22549;SDS011;11441;57.164;-2.120;2022-10-19T08:34:26;1.88;;;0.52;;
22549;SDS011;11441;57.164;-2.120;2022-10-19T08:36:53;2.13;;;0.40;;
22549;SDS011;11441;57.164;-2.120;2022-10-19T08:39:19;3.75;;;0.85;;
22549;SDS011;11441;57.164;-2.120;2022-10-19T08:41:55;4.45;;;0.80;;
22549;SDS011;11441;57.164;-2.120;2022-10-19T08:47:26;3.33;;;0.63;;
22549;SDS011;11441;57.164;-2.120;2022-10-19T08:53:07;2.08;;;0.47;;
22549;SDS011;11441;57.164;-2.120;2022-10-19T09:01:04;6.78;;;0.60;;
22549;SDS011;11441;57.164;-2.120;2022-10-19T09:12:18;3.35;;;0.40;;
22549;SDS011;11441;57.164;-2.120;2022-10-19T09:14:56;3.88;;;0.60;;
22549;SDS011;11441;57.164;-2.120;2022-10-19T09:17:26;2.50;;;0.32;;
22549;SDS011;11441;57.164;-2.120;2022-10-19T09:19:56;4.25;;;0.50;;
22549;SDS011;11441;57.164;-2.120;2022-10-19T09:22:35;1.70;;;0.40;;
22549;SDS011;11441;57.164;-2.120;2022-10-19T09:25:07;1.80;;;0.43;;
22549;SDS011;11441;57.164;-2.120;2022-10-19T09:27:40;4.63;;;0.95;;
22549;SDS011;11441;57.164;-2.120;2022-10-19T09:30:20;0.77;;;0.30;;
22549;SDS011;11441;57.164;-2.120;2022-10-19T09:33:09;4.80;;;0.73;;
22549;SDS011;11441;57.164;-2.120;2022-10-19T09:35:42;5.82;;;0.93;;
22549;SDS011;11441;57.164;-2.120;2022-10-19T09:38:11;2.58;;;0.68;;
22549;SDS011;11441;57.164;-2.120;2022-10-19T09:40:42;2.47;;;0.50;;
22549;SDS011;11441;57.164;-2.120;2022-10-19T09:43:09;2.50;;;0.38;;
22549;SDS011;11441;57.164;-2.120;2022-10-19T09:45:51;4.95;;;0.82;;
22549;SDS011;11441;57.164;-2.120;2022-10-19T09:48:34;3.63;;;0.50;;
22549;SDS011;11441;57.164;-2.120;2022-10-19T09:51:10;3.28;;;0.75;;
22549;SDS011;11441;57.164;-2.120;2022-10-19T09:53:45;3.33;;;0.47;;
22549;SDS011;11441;57.164;-2.120;2022-10-19T09:56:18;2.45;;;0.30;;
22549;SDS011;11441;57.164;-2.120;2022-10-19T09:58:47;1.13;;;0.30;;
22549;SDS011;11441;57.164;-2.120;2022-10-19T10:01:38;3.65;;;0.80;;
22549;SDS011;11441;57.164;-2.120;2022-10-19T10:04:13;3.65;;;0.50;;
22549;SDS011;11441;57.164;-2.120;2022-10-19T10:06:42;4.53;;;1.30;;
22549;SDS011;11441;57.164;-2.120;2022-10-19T10:09:15;1.92;;;0.40;;
22549;SDS011;11441;57.164;-2.120;2022-10-19T10:12:00;3.00;;;0.60;;
22549;SDS011;11441;57.164;-2.120;2022-10-19T10:14:31;4.53;;;0.90;;
22549;SDS011;11441;57.164;-2.120;2022-10-19T10:17:37;6.13;;;1.10;;
22549;SDS011;11441;57.164;-2.120;2022-10-19T10:22:57;2.63;;;0.55;;
22549;SDS011;11441;57.164;-2.120;2022-10-19T10:28:18;2.08;;;0.65;;
22549;SDS011;11441;57.164;-2.120;2022-10-19T10:31:05;1.48;;;0.40;;
22549;SDS011;11441;57.164;-2.120;2022-10-19T10:33:35;10.80;;;5.60;;
22549;SDS011;11441;57.164;-2.120;2022-10-19T10:39:02;2.72;;;0.60;;
22549;SDS011;11441;57.164;-2.120;2022-10-19T10:41:39;3.97;;;0.68;;
22549;SDS011;11441;57.164;-2.120;2022-10-19T10:44:21;4.72;;;0.80;;
22549;SDS011;11441;57.164;-2.120;2022-10-19T10:46:58;3.40;;;0.85;;
22549;SDS011;11441;57.164;-2.120;2022-10-19T10:49:33;7.82;;;0.80;;
22549;SDS011;11441;57.164;-2.120;2022-10-19T10:52:12;5.43;;;1.27;;
22549;SDS011;11441;57.164;-2.120;2022-10-19T10:54:56;4.07;;;0.80;;
22549;SDS011;11441;57.164;-2.120;2022-10-19T10:57:29;2.60;;;0.60;;
22549;SDS011;11441;57.164;-2.120;2022-10-19T11:07:56;1.00;;;0.30;;
22549;SDS011;11441;57.164;-2.120;2022-10-19T11:10:29;1.30;;;0.65;;
22549;SDS011;11441;57.164;-2.120;2022-10-19T11:13:40;2.05;;;0.70;;
22549;SDS011;11441;57.164;-2.120;2022-10-19T11:17:06;5.60;;;1.02;;
22549;SDS011;11441;57.164;-2.120;2022-10-19T11:19:41;4.35;;;0.60;;
22549;SDS011;11441;57.164;-2.120;2022-10-19T11:31:35;4.47;;;1.20;;
22549;SDS011;11441;57.164;-2.120;2022-10-19T11:39:45;6.03;;;0.82;;
22549;SDS011;11441;57.164;-2.120;2022-10-19T11:42:23;1.90;;;0.50;;
22549;SDS011;11441;57.164;-2.120;2022-10-19T11:56:51;1.85;;;0.50;;
22549;SDS011;11441;57.164;-2.120;2022-10-19T12:14:02;4.22;;;0.93;;
22549;SDS011;11441;57.164;-2.120;2022-10-19T12:16:35;8.48;;;1.10;;
22549;SDS011;11441;57.164;-2.120;2022-10-19T12:19:28;9.60;;;1.85;;
22549;SDS011;11441;57.164;-2.120;2022-10-19T12:22:03;3.63;;;0.77;;
22549;SDS011;11441;57.164;-2.120;2022-10-19T12:24:32;0.52;;;0.20;;
22549;SDS011;11441;57.164;-2.120;2022-10-19T12:27:00;2.47;;;0.52;;
22549;SDS011;11441;57.164;-2.120;2022-10-19T12:29:32;4.55;;;1.00;;
22549;SDS011;11441;57.164;-2.120;2022-10-19T12:32:18;1.00;;;0.52;;
22549;SDS011;11441;57.164;-2.120;2022-10-19T12:34:51;2.80;;;0.50;;
22549;SDS011;11441;57.164;-2.120;2022-10-19T12:37:33;3.10;;;0.50;;
22549;SDS011;11441;57.164;-2.120;2022-10-19T12:40:27;5.53;;;0.80;;
22549;SDS011;11441;57.164;-2.120;2022-10-19T12:52:34;3.15;;;0.60;;
22549;SDS011;11441;57.164;-2.120;2022-10-19T12:55:11;2.63;;;0.63;;
22549;SDS011;11441;57.164;-2.120;2022-10-19T12:57:43;1.13;;;0.30;;
22549;SDS011;11441;57.164;-2.120;2022-10-19T13:00:20;3.20;;;0.68;;
22549;SDS011;11441;57.164;-2.120;2022-10-19T13:05:59;5.53;;;2.00;;
22549;SDS011;11441;57.164;-2.120;2022-10-19T13:08:29;4.15;;;1.02;;
22549;SDS011;11441;57.164;-2.120;2022-10-19T13:11:03;2.60;;;0.60;;
22549;SDS011;11441;57.164;-2.120;2022-10-19T13:21:44;2.17;;;0.52;;
22549;SDS011;11441;57.164;-2.120;2022-10-19T13:29:48;4.30;;;2.22;;
22549;SDS011;11441;57.164;-2.120;2022-10-19T13:40:39;3.47;;;1.20;;
22549;SDS011;11441;57.164;-2.120;2022-10-19T13:43:16;4.13;;;0.60;;
22549;SDS011;11441;57.164;-2.120;2022-10-19T13:46:20;2.63;;;0.75;;
22549;SDS011;11441;57.164;-2.120;2022-10-19T13:49:10;4.43;;;1.33;;
22549;SDS011;11441;57.164;-2.120;2022-10-19T14:00:21;2.78;;;0.90;;
22549;SDS011;11441;57.164;-2.120;2022-10-19T14:06:03;5.55;;;0.82;;
22549;SDS011;11441;57.164;-2.120;2022-10-19T14:11:33;4.22;;;0.70;;
22549;SDS011;11441;57.164;-2.120;2022-10-19T14:27:31;5.95;;;1.10;;
22549;SDS011;11441;57.164;-2.120;2022-10-19T14:29:59;5.18;;;1.35;;
22549;SDS011;11441;57.164;-2.120;2022-10-19T14:32:27;3.67;;;1.13;;
22549;SDS011;11441;57.164;-2.120;2022-10-19T14:35:01;3.33;;;0.90;;
22549;SDS011;11441;57.164;-2.120;2022-10-19T14:37:31;5.47;;;0.68;;
22549;SDS011;11441;57.164;-2.120;2022-10-19T14:40:00;4.07;;;0.80;;
22549;SDS011;11441;57.164;-2.120;2022-10-19T14:42:40;2.95;;;0.57;;
22549;SDS011;11441;57.164;-2.120;2022-10-19T14:45:13;8.68;;;1.30;;
22549;SDS011;11441;57.164;-2.120;2022-10-19T14:50:51;3.40;;;1.73;;
22549;SDS011;11441;57.164;-2.120;2022-10-19T14:56:07;2.15;;;1.38;;
22549;SDS011;11441;57.164;-2.120;2022-10-19T14:58:39;3.92;;;1.58;;
22549;SDS011;11441;57.164;-2.120;2022-10-19T15:01:16;6.70;;;1.08;;
22549;SDS011;11441;57.164;-2.120;2022-10-19T15:03:45;3.15;;;0.93;;
22549;SDS011;11441;57.164;-2.120;2022-10-19T15:06:17;6.20;;;1.23;;
22549;SDS011;11441;57.164;-2.120;2022-10-19T15:08:45;5.60;;;0.98;;
22549;SDS011;11441;57.164;-2.120;2022-10-19T15:11:26;3.65;;;0.40;;
22549;SDS011;11441;57.164;-2.120;2022-10-19T15:16:54;8.20;;;1.50;;
22549;SDS011;11441;57.164;-2.120;2022-10-19T15:19:27;13.88;;;1.52;;
22549;SDS011;11441;57.164;-2.120;2022-10-19T15:30:29;6.28;;;1.13;;
22549;SDS011;11441;57.164;-2.120;2022-10-19T15:35:28;3.50;;;0.95;;
22549;SDS011;11441;57.164;-2.120;2022-10-19T15:38:04;2.15;;;0.50;;
22549;SDS011;11441;57.164;-2.120;2022-10-19T15:41:03;3.75;;;0.55;;
22549;SDS011;11441;57.164;-2.120;2022-10-19T15:43:33;3.13;;;0.80;;
22549;SDS011;11441;57.164;-2.120;2022-10-19T15:51:29;5.00;;;0.98;;
22549;SDS011;11441;57.164;-2.120;2022-10-19T15:53:59;5.10;;;0.80;;
22549;SDS011;11441;57.164;-2.120;2022-10-19T15:56:34;3.63;;;0.80;;
22549;SDS011;11441;57.164;-2.120;2022-10-19T15:59:09;8.32;;;1.05;;
22549;SDS011;11441;57.164;-2.120;2022-10-19T16:01:38;2.92;;;0.65;;
22549;SDS011;11441;57.164;-2.120;2022-10-19T16:04:05;4.88;;;0.47;;
22549;SDS011;11441;57.164;-2.120;2022-10-19T16:06:33;3.05;;;0.85;;
22549;SDS011;11441;57.164;-2.120;2022-10-19T16:09:02;4.57;;;1.10;;
22549;SDS011;11441;57.164;-2.120;2022-10-19T16:14:34;7.22;;;1.05;;
22549;SDS011;11441;57.164;-2.120;2022-10-19T16:17:02;5.82;;;1.10;;
22549;SDS011;11441;57.164;-2.120;2022-10-19T16:19:30;7.68;;;1.15;;
22549;SDS011;11441;57.164;-2.120;2022-10-19T16:21:56;7.15;;;1.30;;
22549;SDS011;11441;57.164;-2.120;2022-10-19T16:24:23;8.05;;;0.90;;
22549;SDS011;11441;57.164;-2.120;2022-10-19T16:26:50;6.18;;;0.85;;
22549;SDS011;11441;57.164;-2.120;2022-10-19T16:29:17;4.78;;;0.65;;
22549;SDS011;11441;57.164;-2.120;2022-10-19T16:31:43;8.98;;;1.15;;
22549;SDS011;11441;57.164;-2.120;2022-10-19T16:34:10;4.78;;;1.15;;
22549;SDS011;11441;57.164;-2.120;2022-10-19T16:36:37;8.07;;;0.90;;
22549;SDS011;11441;57.164;-2.120;2022-10-19T16:39:04;3.33;;;0.60;;
22549;SDS011;11441;57.164;-2.120;2022-10-19T16:41:31;3.92;;;0.55;;
22549;SDS011;11441;57.164;-2.120;2022-10-19T16:43:58;8.70;;;1.08;;
22549;SDS011;11441;57.164;-2.120;2022-10-19T16:46:43;2.15;;;0.85;;
22549;SDS011;11441;57.164;-2.120;2022-10-19T16:49:46;5.28;;;1.67;;
22549;SDS011;11441;57.164;-2.120;2022-10-19T16:52:13;9.13;;;1.42;;
22549;SDS011;11441;57.164;-2.120;2022-10-19T16:54:40;2.30;;;0.95;;
22549;SDS011;11441;57.164;-2.120;2022-10-19T16:57:07;2.42;;;1.13;;
22549;SDS011;11441;57.164;-2.120;2022-10-19T16:59:35;5.50;;;1.55;;
22549;SDS011;11441;57.164;-2.120;2022-10-19T17:02:02;4.03;;;1.33;;
22549;SDS011;11441;57.164;-2.120;2022-10-19T17:04:29;3.60;;;1.48;;
22549;SDS011;11441;57.164;-2.120;2022-10-19T17:06:55;2.72;;;0.80;;
22549;SDS011;11441;57.164;-2.120;2022-10-19T17:09:22;3.65;;;0.80;;
22549;SDS011;11441;57.164;-2.120;2022-10-19T17:12:26;5.85;;;1.17;;
22549;SDS011;11441;57.164;-2.120;2022-10-19T17:14:53;6.07;;;1.20;;
22549;SDS011;11441;57.164;-2.120;2022-10-19T17:17:39;2.95;;;1.38;;
22549;SDS011;11441;57.164;-2.120;2022-10-19T17:20:07;4.30;;;0.95;;
22549;SDS011;11441;57.164;-2.120;2022-10-19T17:22:36;6.68;;;1.67;;
22549;SDS011;11441;57.164;-2.120;2022-10-19T17:25:03;7.93;;;1.40;;
22549;SDS011;11441;57.164;-2.120;2022-10-19T17:27:30;4.85;;;0.90;;
22549;SDS011;11441;57.164;-2.120;2022-10-19T17:29:57;7.13;;;1.02;;
22549;SDS011;11441;57.164;-2.120;2022-10-19T17:32:24;5.65;;;1.33;;
22549;SDS011;11441;57.164;-2.120;2022-10-19T17:34:52;11.13;;;1.27;;
22549;SDS011;11441;57.164;-2.120;2022-10-19T17:37:38;3.72;;;0.82;;
22549;SDS011;11441;57.164;-2.120;2022-10-19T17:40:05;9.77;;;1.35;;
22549;SDS011;11441;57.164;-2.120;2022-10-19T17:42:32;4.30;;;0.90;;
22549;SDS011;11441;57.164;-2.120;2022-10-19T17:45:02;4.13;;;1.15;;
22549;SDS011;11441;57.164;-2.120;2022-10-19T17:47:29;6.20;;;1.67;;
22549;SDS011;11441;57.164;-2.120;2022-10-19T17:49:56;9.38;;;1.75;;
22549;SDS011;11441;57.164;-2.120;2022-10-19T17:52:22;5.50;;;1.20;;
22549;SDS011;11441;57.164;-2.120;2022-10-19T17:57:39;7.93;;;1.52;;
22549;SDS011;11441;57.164;-2.120;2022-10-19T18:00:06;5.65;;;1.17;;
22549;SDS011;11441;57.164;-2.120;2022-10-19T18:02:52;5.25;;;0.93;;
22549;SDS011;11441;57.164;-2.120;2022-10-19T18:05:19;10.95;;;2.83;;
22549;SDS011;11441;57.164;-2.120;2022-10-19T18:07:45;4.38;;;1.08;;
22549;SDS011;11441;57.164;-2.120;2022-10-19T18:10:34;5.30;;;1.20;;
22549;SDS011;11441;57.164;-2.120;2022-10-19T18:13:02;6.43;;;1.45;;
22549;SDS011;11441;57.164;-2.120;2022-10-19T18:15:29;4.22;;;0.98;;
22549;SDS011;11441;57.164;-2.120;2022-10-19T18:17:56;5.30;;;1.05;;
22549;SDS011;11441;57.164;-2.120;2022-10-19T18:20:23;1.95;;;1.08;;
22549;SDS011;11441;57.164;-2.120;2022-10-19T18:25:36;5.00;;;1.15;;
22549;SDS011;11441;57.164;-2.120;2022-10-19T18:28:19;4.20;;;1.23;;
22549;SDS011;11441;57.164;-2.120;2022-10-19T18:30:46;7.75;;;1.52;;
22549;SDS011;11441;57.164;-2.120;2022-10-19T18:33:13;7.35;;;1.50;;